MET'MAP v2.0
soon released !

Expected late october,
this new version will be
more efficient, smarter,
and hosted on a brand new
server x3 powerfull...
...and still free !


Not compatible ?
Try the mobile version !

LOG IN : | Subscribe | Disclaimer | Who is Orbifly ? |
ICAO code :

TAF - EGPU Tiree Airport - 26 Feb 2020 12:01 UTC - Data Source NOAA   


- Airport Elevation : 38 ft
- IATA code : TRE
- No reported NOTAMs.


EGPU - Tiree Airport

Latest METAR recorded : 2015/08/11 07:50 EGPU 110750Z AUTO 27008KT 230V290 9999 BKN047/// 13/09 Q1017
TAF TAF EGPU
Valid from the 26 at 09:00 until the 26 at 18:00 UTC


260758Z 2609/2618 30014KT 9999 SCT020
TEMPO 2609/2618 32020G30KT 5000 SHRASN SHRAGS BKN010CB
PROB40
TEMPO 2609/2618 2500 SHSN BKN005

Source NOAA


MET'MAP, your aeronautical weather chart ! - Copyright ORBIFLY December 2007

Programming & Development : Alexandra Zaïnal
Co-Developer : Marc-Olivier Méhu
Technical & hardware support : Manuel Goepfert
Concept & Financing : Baudouin d'Aumeries